createdAt,value
2022-10-19T00:01:17.114Z,7.91
2022-10-19T00:06:25.817Z,7.93
2022-10-19T00:08:57.067Z,7.91
2022-10-19T00:11:26.607Z,7.88
2022-10-19T00:13:58.321Z,7.86
2022-10-19T00:16:29.849Z,7.85
2022-10-19T00:19:02.940Z,7.84
2022-10-19T00:21:31.602Z,7.82
2022-10-19T00:23:59.643Z,7.82
2022-10-19T00:26:27.727Z,7.78
2022-10-19T00:28:56.653Z,7.75
2022-10-19T00:31:25.686Z,7.70
2022-10-19T00:33:55.814Z,7.64
2022-10-19T00:36:26.728Z,7.60
2022-10-19T00:38:56.633Z,7.54
2022-10-19T00:41:28.609Z,7.50
2022-10-19T00:44:04.040Z,7.47
2022-10-19T00:46:34.172Z,7.44
2022-10-19T00:49:16.541Z,7.38
2022-10-19T00:51:48.409Z,7.33
2022-10-19T00:54:18.456Z,7.33
2022-10-19T00:56:49.569Z,7.34
2022-10-19T00:59:22.185Z,7.33
2022-10-19T01:01:50.491Z,7.34
2022-10-19T01:04:20.982Z,7.30
2022-10-19T01:09:22.628Z,7.29
2022-10-19T01:12:28.540Z,7.27
2022-10-19T01:15:05.970Z,7.23
2022-10-19T01:17:52.666Z,7.23
2022-10-19T01:20:40.414Z,7.19
2022-10-19T01:23:38.341Z,7.18
2022-10-19T01:26:06.533Z,7.16
2022-10-19T01:28:54.176Z,7.13
2022-10-19T01:31:34.194Z,7.10
2022-10-19T01:34:13.771Z,7.08
2022-10-19T01:36:46.831Z,7.04
2022-10-19T01:39:29.059Z,6.99
2022-10-19T01:42:09.891Z,6.95
2022-10-19T01:44:55.729Z,6.90
2022-10-19T01:47:26.350Z,6.89
2022-10-19T01:50:06.447Z,6.86
2022-10-19T01:52:36.909Z,6.83
2022-10-19T01:55:05.765Z,6.81
2022-10-19T01:57:37.323Z,6.80
2022-10-19T02:00:08.181Z,6.81
2022-10-19T02:02:46.264Z,6.79
2022-10-19T02:05:17.824Z,6.79
2022-10-19T02:07:52.703Z,6.75
2022-10-19T02:10:21.919Z,6.73
2022-10-19T02:12:51.170Z,6.72
2022-10-19T02:15:22.559Z,6.69
2022-10-19T02:17:57.029Z,6.67
2022-10-19T02:20:29.724Z,6.62
2022-10-19T02:22:58.503Z,6.59
2022-10-19T02:25:27.139Z,6.61
2022-10-19T02:27:55.699Z,6.64
2022-10-19T02:30:24.079Z,6.66
2022-10-19T02:32:53.302Z,6.67
2022-10-19T02:35:23.059Z,6.66
2022-10-19T02:37:51.136Z,6.67
2022-10-19T02:40:19.311Z,6.64
2022-10-19T02:43:00.624Z,6.62
2022-10-19T02:45:34.998Z,6.58
2022-10-19T02:48:07.268Z,6.56
2022-10-19T02:50:35.699Z,6.54
2022-10-19T02:53:03.785Z,6.51
2022-10-19T02:55:31.930Z,6.50
2022-10-19T02:57:59.915Z,6.48
2022-10-19T03:00:27.911Z,6.45
2022-10-19T03:02:57.006Z,6.40
2022-10-19T03:05:27.485Z,6.35
2022-10-19T03:07:55.566Z,6.27
2022-10-19T03:10:25.385Z,6.23
2022-10-19T03:12:53.583Z,6.19
2022-10-19T03:15:23.900Z,6.16
2022-10-19T03:17:56.725Z,6.14
2022-10-19T03:20:24.810Z,6.12
2022-10-19T03:25:25.779Z,6.06
2022-10-19T03:27:54.433Z,6.06
2022-10-19T03:30:22.947Z,6.04
2022-10-19T03:32:50.978Z,6.03
2022-10-19T03:35:19.336Z,6.01
2022-10-19T03:37:47.807Z,6.00
2022-10-19T03:40:18.628Z,5.98
2022-10-19T03:42:47.054Z,5.95
2022-10-19T03:45:16.080Z,5.93
2022-10-19T03:47:49.588Z,5.92
2022-10-19T03:50:18.178Z,5.91
2022-10-19T03:52:46.241Z,5.93
2022-10-19T03:55:14.354Z,5.93
2022-10-19T03:57:42.840Z,5.94
2022-10-19T04:00:11.796Z,5.94
2022-10-19T04:02:43.128Z,5.95
2022-10-19T04:05:11.162Z,5.93
2022-10-19T04:07:40.268Z,5.90
2022-10-19T04:10:08.613Z,5.90
2022-10-19T04:12:37.171Z,5.86
2022-10-19T04:15:07.124Z,5.86
2022-10-19T04:17:35.340Z,5.83
2022-10-19T04:20:04.060Z,5.80
2022-10-19T04:22:32.467Z,5.79
2022-10-19T04:25:01.890Z,5.79
2022-10-19T04:27:30.369Z,5.75
2022-10-19T04:29:59.407Z,5.72
2022-10-19T04:32:27.468Z,5.70
2022-10-19T04:34:56.864Z,5.67
2022-10-19T04:37:24.905Z,5.67
2022-10-19T04:39:54.251Z,5.67
2022-10-19T04:42:22.399Z,5.68
2022-10-19T04:44:50.426Z,5.68
2022-10-19T04:47:19.559Z,5.70
2022-10-19T04:49:48.485Z,5.72
2022-10-19T04:52:16.533Z,5.76
2022-10-19T04:54:44.480Z,5.79
2022-10-19T04:57:12.651Z,5.82
2022-10-19T04:59:42.084Z,5.83
2022-10-19T05:02:10.032Z,5.86
2022-10-19T05:04:40.706Z,5.89
2022-10-19T05:07:12.850Z,5.94
2022-10-19T05:09:42.057Z,5.96
2022-10-19T05:12:10.122Z,5.99
2022-10-19T05:14:41.976Z,6.02
2022-10-19T05:17:11.273Z,6.05
2022-10-19T05:19:39.640Z,6.06
2022-10-19T05:22:09.344Z,6.09
2022-10-19T05:24:37.358Z,6.10
2022-10-19T05:27:05.362Z,6.12
2022-10-19T05:29:33.969Z,6.14
2022-10-19T05:32:02.125Z,6.13
2022-10-19T05:34:30.080Z,6.13
2022-10-19T05:36:58.997Z,6.17
2022-10-19T05:39:28.186Z,6.17
2022-10-19T05:41:57.251Z,6.25
2022-10-19T05:44:25.690Z,6.27
2022-10-19T05:46:54.802Z,6.29
2022-10-19T05:49:25.164Z,6.32
2022-10-19T05:51:53.279Z,6.36
2022-10-19T05:54:23.769Z,6.41
2022-10-19T05:56:54.759Z,6.46
2022-10-19T05:59:23.682Z,6.52
2022-10-19T06:01:51.793Z,6.60
2022-10-19T06:04:24.951Z,6.67
2022-10-19T06:06:53.227Z,6.75
2022-10-19T06:09:21.310Z,6.80
2022-10-19T06:11:49.557Z,6.88
2022-10-19T06:14:17.859Z,6.92
2022-10-19T06:16:46.199Z,7.00
2022-10-19T06:19:14.658Z,7.05
2022-10-19T06:21:45.841Z,7.14
2022-10-19T06:24:14.615Z,7.24
2022-10-19T06:26:43.083Z,7.36
2022-10-19T06:29:12.135Z,7.46
2022-10-19T06:31:40.720Z,7.53
2022-10-19T06:34:10.097Z,7.60
2022-10-19T06:36:38.543Z,7.70
2022-10-19T06:39:07.445Z,7.83
2022-10-19T06:41:35.675Z,7.91
2022-10-19T06:44:19.247Z,8.03
2022-10-19T06:46:47.309Z,8.14
2022-10-19T06:49:16.557Z,8.25
2022-10-19T06:51:45.158Z,8.38
2022-10-19T06:54:13.951Z,8.50
2022-10-19T06:56:42.118Z,8.62
2022-10-19T06:59:13.010Z,8.72
2022-10-19T07:01:41.616Z,8.84
2022-10-19T07:04:09.977Z,8.98
2022-10-19T07:06:40.998Z,9.08
2022-10-19T07:09:09.160Z,9.21
2022-10-19T07:11:40.391Z,9.36
2022-10-19T07:14:16.033Z,9.50
2022-10-19T07:16:44.974Z,9.66
2022-10-19T07:19:13.594Z,9.80
2022-10-19T07:21:43.033Z,9.96
2022-10-19T07:24:11.379Z,10.12
2022-10-19T07:26:41.555Z,10.24
2022-10-19T07:29:09.898Z,10.34
2022-10-19T07:31:38.047Z,10.49
2022-10-19T07:34:06.301Z,10.65
2022-10-19T07:36:36.042Z,10.80
2022-10-19T07:39:06.624Z,10.91
2022-10-19T07:41:36.917Z,11.03
2022-10-19T07:44:06.972Z,11.11
2022-10-19T07:46:37.381Z,11.27
2022-10-19T07:49:10.079Z,11.36
2022-10-19T07:51:39.912Z,11.48
2022-10-19T07:54:09.037Z,11.57
2022-10-19T07:56:37.963Z,11.66
2022-10-19T07:59:07.561Z,11.78
2022-10-19T08:01:42.503Z,11.90
2022-10-19T08:06:59.927Z,12.26
2022-10-19T08:12:18.060Z,12.67
2022-10-19T08:14:48.210Z,12.80
2022-10-19T08:17:17.857Z,12.93
2022-10-19T08:19:48.704Z,13.09
2022-10-19T08:22:19.505Z,13.26
2022-10-19T08:24:48.568Z,13.37
2022-10-19T08:27:17.414Z,13.52
2022-10-19T08:29:46.036Z,13.60
2022-10-19T08:32:14.327Z,13.71
2022-10-19T08:34:43.270Z,13.75
2022-10-19T08:37:25.845Z,13.64
2022-10-19T08:40:01.180Z,13.67
2022-10-19T08:42:42.769Z,13.70
2022-10-19T08:45:26.041Z,13.77
2022-10-19T08:48:22.663Z,13.77
2022-10-19T08:50:52.011Z,13.82
2022-10-19T08:53:26.697Z,13.93
2022-10-19T08:56:14.942Z,14.03
2022-10-19T08:58:52.285Z,14.13
2022-10-19T09:01:41.047Z,14.22
2022-10-19T09:04:18.552Z,14.28
2022-10-19T09:07:17.266Z,14.38
2022-10-19T09:09:51.614Z,14.57
2022-10-19T09:12:32.053Z,14.76
2022-10-19T09:15:09.506Z,15.00
2022-10-19T09:17:39.284Z,15.12
2022-10-19T09:20:17.117Z,15.16
2022-10-19T09:22:47.115Z,15.32
2022-10-19T09:25:23.971Z,15.52
2022-10-19T09:28:33.927Z,15.73
2022-10-19T09:31:46.912Z,15.96
2022-10-19T09:34:41.696Z,16.16
2022-10-19T09:37:18.830Z,16.21
2022-10-19T09:39:55.595Z,16.36
2022-10-19T09:42:30.561Z,16.41
2022-10-19T09:45:02.082Z,16.59
2022-10-19T09:47:36.656Z,16.75
2022-10-19T09:50:29.999Z,16.94
2022-10-19T09:53:07.668Z,16.83
2022-10-19T09:55:40.500Z,16.94
2022-10-19T09:58:34.801Z,16.89
2022-10-19T10:01:41.914Z,16.79
2022-10-19T10:04:17.377Z,16.90
2022-10-19T10:06:49.503Z,16.77
2022-10-19T10:09:29.882Z,16.89
2022-10-19T10:12:02.407Z,16.89
2022-10-19T10:14:34.076Z,16.75
2022-10-19T10:17:13.043Z,16.85
2022-10-19T10:20:21.098Z,16.88
2022-10-19T10:23:00.506Z,16.89
2022-10-19T10:25:36.617Z,16.87
2022-10-19T10:28:19.138Z,16.81
2022-10-19T10:30:52.972Z,16.89
2022-10-19T10:33:43.829Z,16.97
2022-10-19T10:36:13.374Z,17.05
2022-10-19T10:38:52.320Z,17.36
2022-10-19T10:41:23.724Z,17.36
2022-10-19T10:44:04.926Z,17.26
2022-10-19T10:46:36.534Z,17.37
2022-10-19T10:49:06.712Z,17.58
2022-10-19T10:51:40.651Z,17.61
2022-10-19T10:54:32.817Z,17.82
2022-10-19T10:57:16.889Z,17.97
2022-10-19T11:00:01.707Z,18.22
2022-10-19T11:02:56.762Z,18.24
2022-10-19T11:05:29.462Z,18.25
2022-10-19T11:08:13.643Z,18.43
2022-10-19T11:10:48.302Z,18.39
2022-10-19T11:14:10.853Z,18.56
2022-10-19T11:16:46.442Z,18.70
2022-10-19T11:19:24.673Z,18.51
2022-10-19T11:22:02.611Z,18.49
2022-10-19T11:24:52.205Z,18.30
2022-10-19T11:27:48.136Z,18.29
2022-10-19T11:30:22.726Z,18.27
2022-10-19T11:33:20.419Z,18.06
2022-10-19T11:36:03.340Z,17.37
2022-10-19T11:38:48.453Z,17.20
2022-10-19T11:41:56.189Z,17.22
2022-10-19T11:45:03.644Z,17.17
2022-10-19T11:48:20.034Z,17.06
2022-10-19T11:51:16.948Z,16.87
2022-10-19T11:54:24.451Z,16.81
2022-10-19T11:57:23.336Z,16.84
2022-10-19T12:00:27.193Z,16.75
2022-10-19T12:03:37.353Z,16.45
2022-10-19T12:06:22.949Z,16.44
2022-10-19T12:08:56.846Z,16.24
2022-10-19T12:11:46.625Z,16.22
2022-10-19T12:14:26.625Z,16.35
2022-10-19T12:17:00.355Z,16.50
2022-10-19T12:19:34.977Z,16.66
2022-10-19T12:22:06.205Z,16.60
2022-10-19T12:24:36.582Z,16.69
2022-10-19T12:27:05.444Z,16.62
2022-10-19T12:29:39.940Z,16.61
2022-10-19T12:32:13.717Z,16.29
2022-10-19T12:35:08.109Z,16.35
2022-10-19T12:37:44.957Z,16.44
2022-10-19T12:40:37.453Z,16.54
2022-10-19T12:43:14.629Z,16.52
2022-10-19T12:45:45.481Z,16.51
2022-10-19T12:48:15.745Z,16.48
2022-10-19T12:50:49.717Z,16.53
2022-10-19T12:56:05.426Z,16.49
2022-10-19T12:58:47.921Z,16.45
2022-10-19T13:01:34.521Z,16.48
2022-10-19T13:04:07.955Z,16.52
2022-10-19T13:06:41.677Z,16.55
2022-10-19T13:09:22.029Z,16.45
2022-10-19T13:12:19.284Z,16.43
2022-10-19T13:14:54.074Z,16.53
2022-10-19T13:17:34.790Z,16.54
2022-10-19T13:20:19.132Z,16.40
2022-10-19T13:23:10.378Z,16.47
2022-10-19T13:25:41.888Z,16.37
2022-10-19T13:28:10.277Z,16.33
2022-10-19T13:30:38.623Z,16.33
2022-10-19T13:33:24.909Z,16.35
2022-10-19T13:35:59.129Z,16.20
2022-10-19T13:38:30.611Z,16.16
2022-10-19T13:41:04.696Z,16.06
2022-10-19T13:43:39.738Z,15.92
2022-10-19T13:46:21.088Z,15.77
2022-10-19T13:49:02.599Z,15.71
2022-10-19T13:51:50.184Z,15.75
2022-10-19T13:54:33.254Z,15.67
2022-10-19T13:57:14.544Z,15.69
2022-10-19T14:00:04.679Z,15.52
2022-10-19T14:03:19.248Z,15.39
2022-10-19T14:06:06.315Z,15.22
2022-10-19T14:09:01.148Z,15.18
2022-10-19T14:11:40.045Z,15.04
2022-10-19T14:14:11.644Z,14.97
2022-10-19T14:17:01.449Z,14.95
2022-10-19T14:19:44.005Z,14.80
2022-10-19T14:22:23.863Z,14.67
2022-10-19T14:24:53.223Z,14.79
2022-10-19T14:27:24.831Z,14.76
2022-10-19T14:29:54.134Z,14.66
2022-10-19T14:32:28.237Z,14.42
2022-10-19T14:37:33.353Z,14.49
2022-10-19T14:40:26.667Z,14.52
2022-10-19T14:43:24.253Z,14.47
2022-10-19T14:46:07.550Z,14.45
2022-10-19T14:48:38.009Z,14.31
2022-10-19T14:51:20.000Z,14.34
2022-10-19T14:54:17.116Z,14.39
2022-10-19T14:56:54.841Z,14.31
2022-10-19T14:59:27.698Z,14.31
2022-10-19T15:02:05.256Z,14.37
2022-10-19T15:04:39.247Z,14.43
2022-10-19T15:07:18.884Z,14.41
2022-10-19T15:09:58.001Z,14.38
2022-10-19T15:12:40.410Z,14.33
2022-10-19T15:15:18.608Z,14.20
2022-10-19T15:18:06.901Z,14.21
2022-10-19T15:20:54.924Z,14.20
2022-10-19T15:23:38.281Z,14.13
2022-10-19T15:26:29.876Z,14.07
2022-10-19T15:29:09.620Z,14.02
2022-10-19T15:31:38.212Z,13.95
2022-10-19T15:34:06.395Z,13.87
2022-10-19T15:36:34.900Z,13.82
2022-10-19T15:39:25.081Z,13.76
2022-10-19T15:41:55.774Z,13.71
2022-10-19T15:44:43.905Z,13.66
2022-10-19T15:47:15.140Z,13.62
2022-10-19T15:49:52.152Z,13.62
2022-10-19T15:52:25.434Z,13.60
2022-10-19T15:54:56.511Z,13.54
2022-10-19T15:57:40.314Z,13.46
2022-10-19T16:00:17.658Z,13.42
2022-10-19T16:02:47.769Z,13.40
2022-10-19T16:05:16.185Z,13.36
2022-10-19T16:07:44.367Z,13.38
2022-10-19T16:10:19.944Z,13.32
2022-10-19T16:12:48.186Z,13.28
2022-10-19T16:15:25.242Z,13.24
2022-10-19T16:17:58.103Z,13.18
2022-10-19T16:20:28.178Z,13.19
2022-10-19T16:22:57.658Z,13.13
2022-10-19T16:25:28.896Z,13.09
2022-10-19T16:27:56.904Z,13.10
2022-10-19T16:30:25.188Z,13.09
2022-10-19T16:32:53.520Z,13.04
2022-10-19T16:35:21.732Z,13.01
2022-10-19T16:37:49.771Z,12.99
2022-10-19T16:40:17.939Z,12.96
2022-10-19T16:42:46.163Z,12.91
2022-10-19T16:45:14.173Z,12.90
2022-10-19T16:47:43.462Z,12.91
2022-10-19T16:50:13.566Z,12.93
2022-10-19T16:52:41.708Z,12.93
2022-10-19T16:55:10.060Z,12.92
2022-10-19T16:57:38.852Z,12.89
2022-10-19T17:00:09.808Z,12.87
2022-10-19T17:02:41.923Z,12.82
2022-10-19T17:05:12.559Z,12.82
2022-10-19T17:07:40.726Z,12.83
2022-10-19T17:10:09.539Z,12.84
2022-10-19T17:12:41.140Z,12.80
2022-10-19T17:15:40.882Z,12.77
2022-10-19T17:17:58.223Z,12.72
2022-10-19T17:20:26.224Z,12.70
2022-10-19T17:22:54.430Z,12.68
2022-10-19T17:25:22.442Z,12.67
2022-10-19T17:27:51.315Z,12.66
2022-10-19T17:30:20.010Z,12.64
2022-10-19T17:32:47.943Z,12.61
2022-10-19T17:35:17.845Z,12.56
2022-10-19T17:37:46.865Z,12.54
2022-10-19T17:40:15.051Z,12.47
2022-10-19T17:42:43.082Z,12.44
2022-10-19T17:45:13.600Z,12.42
2022-10-19T17:47:41.650Z,12.43
2022-10-19T17:50:10.393Z,12.44
2022-10-19T17:52:39.229Z,12.45
2022-10-19T17:55:12.459Z,12.46
2022-10-19T17:57:42.220Z,12.47
2022-10-19T18:00:14.382Z,12.43
2022-10-19T18:02:45.094Z,12.43
2022-10-19T18:05:14.047Z,12.42
2022-10-19T18:07:43.148Z,12.41
2022-10-19T18:10:14.567Z,12.40
2022-10-19T18:12:44.735Z,12.38
2022-10-19T18:15:14.960Z,12.37
2022-10-19T18:17:43.226Z,12.38
2022-10-19T18:20:11.901Z,12.34
2022-10-19T18:22:39.938Z,12.32
2022-10-19T18:25:10.631Z,12.31
2022-10-19T18:27:39.033Z,12.28
2022-10-19T18:30:10.687Z,12.29
2022-10-19T18:32:38.820Z,12.29
2022-10-19T18:35:09.034Z,12.25
2022-10-19T18:37:38.091Z,12.25
2022-10-19T18:40:06.935Z,12.24
2022-10-19T18:42:35.747Z,12.21
2022-10-19T18:45:04.853Z,12.13
2022-10-19T18:47:33.003Z,12.10
2022-10-19T18:50:03.367Z,12.08
2022-10-19T18:52:36.329Z,12.00
2022-10-19T18:55:05.142Z,11.93
2022-10-19T18:57:35.095Z,11.87
2022-10-19T19:00:05.049Z,11.81
2022-10-19T19:02:46.597Z,11.80
2022-10-19T19:05:16.040Z,11.73
2022-10-19T19:07:46.265Z,11.72
2022-10-19T19:10:16.496Z,11.72
2022-10-19T19:12:50.130Z,11.68
2022-10-19T19:15:18.485Z,11.67
2022-10-19T19:17:47.444Z,11.65
2022-10-19T19:20:19.623Z,11.66
2022-10-19T19:22:47.809Z,11.64
2022-10-19T19:25:16.607Z,11.59
2022-10-19T19:27:44.772Z,11.53
2022-10-19T19:30:13.002Z,11.50
2022-10-19T19:32:41.620Z,11.46
2022-10-19T19:35:12.769Z,11.43
2022-10-19T19:37:41.948Z,11.38
2022-10-19T19:40:10.519Z,11.37
2022-10-19T19:42:39.359Z,11.33
2022-10-19T19:45:10.217Z,11.30
2022-10-19T19:47:38.386Z,11.22
2022-10-19T19:50:07.595Z,11.17
2022-10-19T19:52:40.163Z,11.17
2022-10-19T19:55:08.761Z,11.15
2022-10-19T19:57:37.979Z,11.15
2022-10-19T20:00:07.417Z,11.14
2022-10-19T20:02:39.801Z,11.15
2022-10-19T20:05:08.142Z,11.15
2022-10-19T20:07:37.068Z,11.14
2022-10-19T20:10:05.729Z,11.13
2022-10-19T20:12:33.770Z,11.13
2022-10-19T20:15:02.582Z,11.15
2022-10-19T20:17:32.857Z,11.14
2022-10-19T20:20:02.189Z,11.12
2022-10-19T20:22:30.196Z,11.13
2022-10-19T20:24:58.131Z,11.13
2022-10-19T20:27:26.280Z,11.10
2022-10-19T20:29:58.527Z,11.14
2022-10-19T20:32:27.331Z,11.17
2022-10-19T20:34:55.419Z,11.20
2022-10-19T20:37:25.928Z,11.19
2022-10-19T20:39:53.911Z,11.18
2022-10-19T20:42:21.978Z,11.23
2022-10-19T20:44:50.012Z,11.24
2022-10-19T20:47:18.278Z,11.22
2022-10-19T20:49:46.231Z,11.22
2022-10-19T20:52:18.631Z,11.27
2022-10-19T20:54:49.333Z,11.24
2022-10-19T20:57:18.262Z,11.18
2022-10-19T20:59:46.498Z,11.09
2022-10-19T21:02:14.485Z,11.12
2022-10-19T21:04:43.432Z,11.05
2022-10-19T21:07:11.410Z,11.04
2022-10-19T21:09:39.552Z,11.01
2022-10-19T21:12:08.168Z,10.99
2022-10-19T21:14:37.261Z,10.98
2022-10-19T21:17:05.627Z,10.95
2022-10-19T21:19:34.722Z,10.93
2022-10-19T21:22:02.880Z,10.84
2022-10-19T21:24:33.746Z,10.82
2022-10-19T21:27:04.876Z,10.77
2022-10-19T21:29:33.605Z,10.77
2022-10-19T21:32:01.743Z,10.74
2022-10-19T21:34:31.586Z,10.66
2022-10-19T21:37:00.186Z,10.65
2022-10-19T21:39:28.707Z,10.63
2022-10-19T21:41:57.215Z,10.61
2022-10-19T21:44:25.776Z,10.58
2022-10-19T21:46:53.734Z,10.53
2022-10-19T21:49:24.066Z,10.48
2022-10-19T21:51:54.191Z,10.44
2022-10-19T21:54:25.296Z,10.39
2022-10-19T21:56:55.851Z,10.33
2022-10-19T21:59:25.071Z,10.23
2022-10-19T22:01:55.198Z,10.18
2022-10-19T22:04:23.733Z,10.13
2022-10-19T22:06:52.257Z,10.03
2022-10-19T22:09:23.321Z,9.99
2022-10-19T22:11:51.585Z,9.91
2022-10-19T22:14:19.799Z,9.86
2022-10-19T22:16:47.904Z,9.81
2022-10-19T22:19:20.529Z,9.74
2022-10-19T22:21:50.185Z,9.66
2022-10-19T22:24:20.239Z,9.56
2022-10-19T22:26:50.801Z,9.51
2022-10-19T22:29:19.380Z,9.41
2022-10-19T22:31:48.419Z,9.34
2022-10-19T22:34:20.243Z,9.27
2022-10-19T22:36:48.779Z,9.17
2022-10-19T22:39:16.862Z,9.10
2022-10-19T22:41:45.321Z,9.07
2022-10-19T22:44:13.926Z,9.03
2022-10-19T22:46:42.094Z,9.00
2022-10-19T22:49:10.249Z,8.98
2022-10-19T22:51:38.578Z,8.97
2022-10-19T22:54:07.062Z,8.95
2022-10-19T22:56:35.398Z,8.92
2022-10-19T22:59:06.711Z,8.89
2022-10-19T23:01:35.979Z,8.87
2022-10-19T23:04:04.491Z,8.82
2022-10-19T23:06:34.283Z,8.79
2022-10-19T23:09:02.548Z,8.74
2022-10-19T23:11:30.735Z,8.72
2022-10-19T23:13:59.004Z,8.69
2022-10-19T23:19:01.405Z,8.63
2022-10-19T23:21:29.792Z,8.60
2022-10-19T23:23:58.490Z,8.54
2022-10-19T23:26:26.839Z,8.47
2022-10-19T23:28:54.788Z,8.46
2022-10-19T23:31:26.111Z,8.38
2022-10-19T23:33:54.555Z,8.32
2022-10-19T23:36:27.995Z,8.28
2022-10-19T23:38:57.503Z,8.22
2022-10-19T23:41:25.775Z,8.18
2022-10-19T23:43:53.926Z,8.14
2022-10-19T23:46:22.006Z,8.13
2022-10-19T23:48:49.942Z,8.09
2022-10-19T23:51:20.562Z,8.08
2022-10-19T23:53:51.305Z,8.04
2022-10-19T23:56:26.699Z,8.01
2022-10-19T23:58:55.699Z,7.99
